sensor_id;sensor_type;location;lat;lon;timestamp;pressure;altitude;pressure_sealevel;temperature;humidity
63691;BME280;49837;57.280;27.070;2023-09-18T00:00:08;100837.08;;;9.93;100.0
63691;BME280;49837;57.280;27.070;2023-09-18T00:01:08;100836.37;;;9.9;100.0
63691;BME280;49837;57.280;27.070;2023-09-18T00:02:08;100836.17;;;9.87;100.0
63691;BME280;49837;57.280;27.070;2023-09-18T00:03:08;100835.88;;;9.83;100.0
63691;BME280;49837;57.280;27.070;2023-09-18T00:04:09;100829.7;;;9.8;100.0
63691;BME280;49837;57.280;27.070;2023-09-18T00:05:09;100830.77;;;9.8;100.0
63691;BME280;49837;57.280;27.070;2023-09-18T00:06:10;100827.41;;;9.78;100.0
63691;BME280;49837;57.280;27.070;2023-09-18T00:07:10;100828.61;;;9.75;100.0
63691;BME280;49837;57.280;27.070;2023-09-18T00:08:11;100828.68;;;9.75;100.0
63691;BME280;49837;57.280;27.070;2023-09-18T00:09:11;100828.7;;;9.73;100.0
63691;BME280;49837;57.280;27.070;2023-09-18T00:10:12;100828.68;;;9.75;100.0
63691;BME280;49837;57.280;27.070;2023-09-18T00:11:12;100832.42;;;9.75;100.0
63691;BME280;49837;57.280;27.070;2023-09-18T00:12:12;100832.27;;;9.76;100.0
63691;BME280;49837;57.280;27.070;2023-09-18T00:13:13;100833.56;;;9.78;100.0
63691;BME280;49837;57.280;27.070;2023-09-18T00:14:13;100830.23;;;9.78;100.0
63691;BME280;49837;57.280;27.070;2023-09-18T00:15:14;100831.7;;;9.8;100.0
63691;BME280;49837;57.280;27.070;2023-09-18T00:16:14;100826.89;;;9.84;100.0
63691;BME280;49837;57.280;27.070;2023-09-18T00:17:14;100829.02;;;9.85;100.0
63691;BME280;49837;57.280;27.070;2023-09-18T00:18:16;100825.26;;;9.85;100.0
63691;BME280;49837;57.280;27.070;2023-09-18T00:19:15;100828.77;;;9.86;100.0
63691;BME280;49837;57.280;27.070;2023-09-18T00:20:16;100827.16;;;9.87;100.0
63691;BME280;49837;57.280;27.070;2023-09-18T00:21:16;100826.13;;;9.84;100.0
63691;BME280;49837;57.280;27.070;2023-09-18T00:22:17;100825.7;;;9.8;100.0
63691;BME280;49837;57.280;27.070;2023-09-18T00:23:17;100826.61;;;9.74;100.0
63691;BME280;49837;57.280;27.070;2023-09-18T00:24:17;100821.73;;;9.72;100.0
63691;BME280;49837;57.280;27.070;2023-09-18T00:25:18;100826.89;;;9.72;100.0
63691;BME280;49837;57.280;27.070;2023-09-18T00:26:18;100822.42;;;9.71;100.0
63691;BME280;49837;57.280;27.070;2023-09-18T00:27:19;100825.12;;;9.73;100.0
63691;BME280;49837;57.280;27.070;2023-09-18T00:28:19;100827.12;;;9.74;100.0
63691;BME280;49837;57.280;27.070;2023-09-18T00:29:19;100823.63;;;9.74;100.0
63691;BME280;49837;57.280;27.070;2023-09-18T00:30:20;100825.31;;;9.73;100.0
63691;BME280;49837;57.280;27.070;2023-09-18T00:31:20;100824.8;;;9.73;100.0
63691;BME280;49837;57.280;27.070;2023-09-18T00:32:21;100826.72;;;9.73;100.0
63691;BME280;49837;57.280;27.070;2023-09-18T00:33:21;100826.9;;;9.72;100.0
63691;BME280;49837;57.280;27.070;2023-09-18T00:34:22;100829.77;;;9.71;100.0
63691;BME280;49837;57.280;27.070;2023-09-18T00:35:22;100831.09;;;9.7;100.0
63691;BME280;49837;57.280;27.070;2023-09-18T00:36:22;100830.95;;;9.69;100.0
63691;BME280;49837;57.280;27.070;2023-09-18T00:37:23;100830.87;;;9.68;100.0
63691;BME280;49837;57.280;27.070;2023-09-18T00:38:23;100831.28;;;9.7;100.0
63691;BME280;49837;57.280;27.070;2023-09-18T00:39:24;100832.54;;;9.69;100.0
63691;BME280;49837;57.280;27.070;2023-09-18T00:40:24;100833.04;;;9.69;100.0
63691;BME280;49837;57.280;27.070;2023-09-18T00:41:24;100830.45;;;9.7;100.0
63691;BME280;49837;57.280;27.070;2023-09-18T00:42:25;100828.14;;;9.67;100.0
63691;BME280;49837;57.280;27.070;2023-09-18T00:43:25;100832.67;;;9.65;100.0
63691;BME280;49837;57.280;27.070;2023-09-18T00:44:26;100833.95;;;9.62;100.0
63691;BME280;49837;57.280;27.070;2023-09-18T00:45:26;100835.8;;;9.61;100.0
63691;BME280;49837;57.280;27.070;2023-09-18T00:46:27;100837.05;;;9.62;100.0
63691;BME280;49837;57.280;27.070;2023-09-18T00:47:27;100840.04;;;9.63;100.0
63691;BME280;49837;57.280;27.070;2023-09-18T00:48:27;100835.64;;;9.62;100.0
63691;BME280;49837;57.280;27.070;2023-09-18T00:49:28;100837.09;;;9.59;100.0
63691;BME280;49837;57.280;27.070;2023-09-18T00:50:28;100833.81;;;9.56;100.0
63691;BME280;49837;57.280;27.070;2023-09-18T00:51:29;100830.14;;;9.52;100.0
63691;BME280;49837;57.280;27.070;2023-09-18T00:52:29;100829.95;;;9.47;100.0
63691;BME280;49837;57.280;27.070;2023-09-18T00:53:30;100829.44;;;9.42;100.0
63691;BME280;49837;57.280;27.070;2023-09-18T00:54:31;100827.7;;;9.41;100.0
63691;BME280;49837;57.280;27.070;2023-09-18T00:55:31;100834.69;;;9.42;100.0
63691;BME280;49837;57.280;27.070;2023-09-18T00:56:32;100839.33;;;9.43;100.0
63691;BME280;49837;57.280;27.070;2023-09-18T00:57:31;100839.66;;;9.44;100.0
63691;BME280;49837;57.280;27.070;2023-09-18T00:58:32;100844.12;;;9.46;100.0
63691;BME280;49837;57.280;27.070;2023-09-18T00:59:32;100840.22;;;9.49;100.0
63691;BME280;49837;57.280;27.070;2023-09-18T01:00:33;100842.88;;;9.51;100.0
63691;BME280;49837;57.280;27.070;2023-09-18T01:01:33;100841.89;;;9.49;100.0
63691;BME280;49837;57.280;27.070;2023-09-18T01:02:33;100838.16;;;9.5;100.0
63691;BME280;49837;57.280;27.070;2023-09-18T01:03:34;100838.67;;;9.49;100.0
63691;BME280;49837;57.280;27.070;2023-09-18T01:04:34;100837.41;;;9.43;100.0
63691;BME280;49837;57.280;27.070;2023-09-18T01:05:35;100841.41;;;9.41;100.0
63691;BME280;49837;57.280;27.070;2023-09-18T01:06:35;100839.45;;;9.39;100.0
63691;BME280;49837;57.280;27.070;2023-09-18T01:07:36;100842.23;;;9.38;100.0
63691;BME280;49837;57.280;27.070;2023-09-18T01:08:36;100840.55;;;9.35;100.0
63691;BME280;49837;57.280;27.070;2023-09-18T01:09:37;100838.69;;;9.3;100.0
63691;BME280;49837;57.280;27.070;2023-09-18T01:16:11;100850.44;;;9.21;100.0
63691;BME280;49837;57.280;27.070;2023-09-18T01:16:57;100846.7;;;9.21;100.0
63691;BME280;49837;57.280;27.070;2023-09-18T01:17:57;100850.12;;;9.21;100.0
63691;BME280;49837;57.280;27.070;2023-09-18T01:18:57;100852.88;;;9.2;100.0
63691;BME280;49837;57.280;27.070;2023-09-18T01:19:58;100850.59;;;9.17;100.0
63691;BME280;49837;57.280;27.070;2023-09-18T01:20:58;100845.39;;;9.07;100.0
63691;BME280;49837;57.280;27.070;2023-09-18T01:21:59;100841.8;;;8.94;100.0
63691;BME280;49837;57.280;27.070;2023-09-18T01:22:59;100845.19;;;8.89;100.0
63691;BME280;49837;57.280;27.070;2023-09-18T01:23:59;100847.31;;;8.85;100.0
63691;BME280;49837;57.280;27.070;2023-09-18T01:25:00;100843.69;;;8.84;100.0
63691;BME280;49837;57.280;27.070;2023-09-18T01:26:00;100846.75;;;8.84;100.0
63691;BME280;49837;57.280;27.070;2023-09-18T01:27:01;100846.33;;;8.86;100.0
63691;BME280;49837;57.280;27.070;2023-09-18T01:28:01;100845.93;;;8.83;100.0
63691;BME280;49837;57.280;27.070;2023-09-18T01:29:01;100844.18;;;8.77;100.0
63691;BME280;49837;57.280;27.070;2023-09-18T01:30:03;100842.47;;;8.74;100.0
63691;BME280;49837;57.280;27.070;2023-09-18T01:31:02;100843.63;;;8.72;100.0
63691;BME280;49837;57.280;27.070;2023-09-18T01:32:03;100845.9;;;8.71;100.0
63691;BME280;49837;57.280;27.070;2023-09-18T01:33:04;100849.08;;;8.7;100.0
63691;BME280;49837;57.280;27.070;2023-09-18T01:34:04;100849.35;;;8.67;100.0
63691;BME280;49837;57.280;27.070;2023-09-18T01:35:05;100847.88;;;8.64;100.0
63691;BME280;49837;57.280;27.070;2023-09-18T01:36:07;100845.31;;;8.63;100.0
63691;BME280;49837;57.280;27.070;2023-09-18T01:37:06;100846.16;;;8.64;100.0
63691;BME280;49837;57.280;27.070;2023-09-18T01:38:05;100848.45;;;8.67;100.0
63691;BME280;49837;57.280;27.070;2023-09-18T01:39:06;100845.73;;;8.63;100.0
63691;BME280;49837;57.280;27.070;2023-09-18T01:40:07;100844.38;;;8.6;100.0
63691;BME280;49837;57.280;27.070;2023-09-18T01:41:07;100844.38;;;8.58;100.0
63691;BME280;49837;57.280;27.070;2023-09-18T01:42:07;100842.58;;;8.56;100.0
63691;BME280;49837;57.280;27.070;2023-09-18T01:43:08;100845.28;;;8.53;100.0
63691;BME280;49837;57.280;27.070;2023-09-18T01:44:08;100844.62;;;8.52;100.0
63691;BME280;49837;57.280;27.070;2023-09-18T01:45:09;100843.95;;;8.52;100.0
63691;BME280;49837;57.280;27.070;2023-09-18T01:46:09;100843.2;;;8.51;100.0
63691;BME280;49837;57.280;27.070;2023-09-18T01:47:12;100843.55;;;8.5;100.0
63691;BME280;49837;57.280;27.070;2023-09-18T01:48:11;100845.19;;;8.51;100.0
63691;BME280;49837;57.280;27.070;2023-09-18T01:49:11;100845.37;;;8.51;100.0
63691;BME280;49837;57.280;27.070;2023-09-18T01:50:12;100844.47;;;8.51;100.0
63691;BME280;49837;57.280;27.070;2023-09-18T01:51:14;100845.21;;;8.5;100.0
63691;BME280;49837;57.280;27.070;2023-09-18T01:52:13;100843.66;;;8.46;100.0
63691;BME280;49837;57.280;27.070;2023-09-18T01:53:13;100844.65;;;8.44;100.0
63691;BME280;49837;57.280;27.070;2023-09-18T01:54:13;100846.91;;;8.44;100.0
63691;BME280;49837;57.280;27.070;2023-09-18T01:55:14;100847.02;;;8.4;100.0
63691;BME280;49837;57.280;27.070;2023-09-18T01:56:14;100848.16;;;8.35;100.0
63691;BME280;49837;57.280;27.070;2023-09-18T01:57:15;100845.93;;;8.33;100.0
63691;BME280;49837;57.280;27.070;2023-09-18T01:58:15;100843.45;;;8.33;100.0
63691;BME280;49837;57.280;27.070;2023-09-18T01:59:16;100847.05;;;8.3;100.0
63691;BME280;49837;57.280;27.070;2023-09-18T02:00:16;100846.97;;;8.3;100.0
63691;BME280;49837;57.280;27.070;2023-09-18T02:01:16;100848.08;;;8.27;100.0
63691;BME280;49837;57.280;27.070;2023-09-18T02:02:17;100847.59;;;8.24;100.0
63691;BME280;49837;57.280;27.070;2023-09-18T02:03:19;100843.47;;;8.21;100.0
63691;BME280;49837;57.280;27.070;2023-09-18T02:04:21;100847.3;;;8.2;100.0
63691;BME280;49837;57.280;27.070;2023-09-18T02:05:24;100847.16;;;8.17;100.0
63691;BME280;49837;57.280;27.070;2023-09-18T02:06:24;100846.92;;;8.16;100.0
63691;BME280;49837;57.280;27.070;2023-09-18T02:07:25;100849.67;;;8.15;100.0
63691;BME280;49837;57.280;27.070;2023-09-18T02:08:25;100849.11;;;8.13;100.0
63691;BME280;49837;57.280;27.070;2023-09-18T02:09:26;100850.69;;;8.13;100.0
63691;BME280;49837;57.280;27.070;2023-09-18T02:10:26;100853.02;;;8.13;100.0
63691;BME280;49837;57.280;27.070;2023-09-18T02:11:27;100852.86;;;8.11;100.0
63691;BME280;49837;57.280;27.070;2023-09-18T02:12:27;100851.47;;;8.09;100.0
63691;BME280;49837;57.280;27.070;2023-09-18T02:13:27;100850.66;;;8.06;100.0
63691;BME280;49837;57.280;27.070;2023-09-18T02:14:28;100852.59;;;8.05;100.0
63691;BME280;49837;57.280;27.070;2023-09-18T02:15:28;100847.86;;;8.03;100.0
63691;BME280;49837;57.280;27.070;2023-09-18T02:16:28;100850.14;;;8.0;100.0
63691;BME280;49837;57.280;27.070;2023-09-18T02:17:29;100846.67;;;7.96;100.0
63691;BME280;49837;57.280;27.070;2023-09-18T02:18:29;100852.42;;;7.95;100.0
63691;BME280;49837;57.280;27.070;2023-09-18T02:19:29;100849.3;;;7.93;100.0
63691;BME280;49837;57.280;27.070;2023-09-18T02:20:30;100855.28;;;7.9;100.0
63691;BME280;49837;57.280;27.070;2023-09-18T02:21:31;100853.8;;;7.88;100.0
63691;BME280;49837;57.280;27.070;2023-09-18T02:22:34;100851.64;;;7.88;100.0
63691;BME280;49837;57.280;27.070;2023-09-18T02:23:31;100856.14;;;7.87;100.0
63691;BME280;49837;57.280;27.070;2023-09-18T02:24:32;100854.23;;;7.85;100.0
63691;BME280;49837;57.280;27.070;2023-09-18T02:25:32;100854.66;;;7.85;100.0
63691;BME280;49837;57.280;27.070;2023-09-18T02:26:32;100851.92;;;7.85;100.0
63691;BME280;49837;57.280;27.070;2023-09-18T02:27:33;100851.0;;;7.84;100.0
63691;BME280;49837;57.280;27.070;2023-09-18T02:28:33;100850.05;;;7.81;100.0
63691;BME280;49837;57.280;27.070;2023-09-18T02:29:33;100853.62;;;7.78;100.0
63691;BME280;49837;57.280;27.070;2023-09-18T02:30:34;100847.34;;;7.77;100.0
63691;BME280;49837;57.280;27.070;2023-09-18T02:31:34;100851.16;;;7.77;100.0
63691;BME280;49837;57.280;27.070;2023-09-18T02:32:35;100851.16;;;7.77;100.0
63691;BME280;49837;57.280;27.070;2023-09-18T02:33:36;100852.98;;;7.75;100.0
63691;BME280;49837;57.280;27.070;2023-09-18T02:34:36;100853.91;;;7.75;100.0
63691;BME280;49837;57.280;27.070;2023-09-18T02:35:36;100854.83;;;7.72;100.0
63691;BME280;49837;57.280;27.070;2023-09-18T02:36:36;100854.42;;;7.72;100.0
63691;BME280;49837;57.280;27.070;2023-09-18T02:37:37;100855.45;;;7.7;100.0
63691;BME280;49837;57.280;27.070;2023-09-18T02:38:37;100851.31;;;7.67;100.0
63691;BME280;49837;57.280;27.070;2023-09-18T02:39:37;100853.15;;;7.65;100.0
63691;BME280;49837;57.280;27.070;2023-09-18T02:40:38;100850.56;;;7.64;100.0
63691;BME280;49837;57.280;27.070;2023-09-18T02:41:38;100853.14;;;7.65;100.0
63691;BME280;49837;57.280;27.070;2023-09-18T02:42:39;100852.5;;;7.63;100.0
63691;BME280;49837;57.280;27.070;2023-09-18T02:43:39;100854.94;;;7.59;100.0
63691;BME280;49837;57.280;27.070;2023-09-18T02:44:39;100854.03;;;7.53;100.0
63691;BME280;49837;57.280;27.070;2023-09-18T02:45:40;100854.16;;;7.49;100.0
63691;BME280;49837;57.280;27.070;2023-09-18T02:46:41;100852.53;;;7.44;100.0
63691;BME280;49837;57.280;27.070;2023-09-18T02:47:41;100855.69;;;7.44;100.0
63691;BME280;49837;57.280;27.070;2023-09-18T02:48:41;100858.84;;;7.42;100.0
63691;BME280;49837;57.280;27.070;2023-09-18T02:49:42;100860.33;;;7.41;100.0
63691;BME280;49837;57.280;27.070;2023-09-18T02:50:42;100861.94;;;7.39;100.0
63691;BME280;49837;57.280;27.070;2023-09-18T02:51:42;100861.59;;;7.39;100.0
63691;BME280;49837;57.280;27.070;2023-09-18T02:52:43;100860.43;;;7.39;100.0
63691;BME280;49837;57.280;27.070;2023-09-18T02:53:43;100862.87;;;7.39;100.0
63691;BME280;49837;57.280;27.070;2023-09-18T02:54:43;100861.42;;;7.39;100.0
63691;BME280;49837;57.280;27.070;2023-09-18T02:55:44;100858.44;;;7.38;100.0
63691;BME280;49837;57.280;27.070;2023-09-18T02:56:44;100859.9;;;7.34;100.0
63691;BME280;49837;57.280;27.070;2023-09-18T02:57:45;100859.72;;;7.34;100.0
63691;BME280;49837;57.280;27.070;2023-09-18T02:58:45;100857.59;;;7.3;100.0
63691;BME280;49837;57.280;27.070;2023-09-18T02:59:45;100856.39;;;7.24;100.0
63691;BME280;49837;57.280;27.070;2023-09-18T03:00:48;100864.44;;;7.2;100.0
63691;BME280;49837;57.280;27.070;2023-09-18T03:01:46;100853.42;;;7.13;100.0
63691;BME280;49837;57.280;27.070;2023-09-18T03:02:47;100857.85;;;7.12;100.0
63691;BME280;49837;57.280;27.070;2023-09-18T03:03:47;100857.94;;;7.09;100.0
63691;BME280;49837;57.280;27.070;2023-09-18T03:04:47;100860.69;;;7.07;100.0
63691;BME280;49837;57.280;27.070;2023-09-18T03:05:48;100863.66;;;7.07;100.0
63691;BME280;49837;57.280;27.070;2023-09-18T03:06:48;100859.87;;;7.06;100.0
63691;BME280;49837;57.280;27.070;2023-09-18T03:07:49;100864.0;;;7.06;100.0
63691;BME280;49837;57.280;27.070;2023-09-18T03:08:49;100862.91;;;7.07;100.0
63691;BME280;49837;57.280;27.070;2023-09-18T03:09:49;100860.41;;;7.08;100.0
63691;BME280;49837;57.280;27.070;2023-09-18T03:10:50;100859.75;;;7.09;100.0
63691;BME280;49837;57.280;27.070;2023-09-18T03:11:51;100862.34;;;7.09;100.0
63691;BME280;49837;57.280;27.070;2023-09-18T03:12:51;100861.25;;;7.07;100.0
63691;BME280;49837;57.280;27.070;2023-09-18T03:13:51;100860.11;;;7.04;100.0
63691;BME280;49837;57.280;27.070;2023-09-18T03:14:51;100860.71;;;6.96;100.0
63691;BME280;49837;57.280;27.070;2023-09-18T03:15:52;100860.34;;;6.89;100.0
63691;BME280;49837;57.280;27.070;2023-09-18T03:16:52;100863.2;;;6.79;100.0
63691;BME280;49837;57.280;27.070;2023-09-18T03:17:53;100861.08;;;6.67;100.0
63691;BME280;49837;57.280;27.070;2023-09-18T03:18:53;100855.8;;;6.62;100.0
63691;BME280;49837;57.280;27.070;2023-09-18T03:19:53;100853.47;;;6.57;100.0
63691;BME280;49837;57.280;27.070;2023-09-18T03:20:54;100856.48;;;6.5;100.0
63691;BME280;49837;57.280;27.070;2023-09-18T03:21:54;100853.5;;;6.48;100.0
63691;BME280;49837;57.280;27.070;2023-09-18T03:22:56;100855.56;;;6.44;100.0
63691;BME280;49837;57.280;27.070;2023-09-18T03:23:55;100852.09;;;6.42;100.0
63691;BME280;49837;57.280;27.070;2023-09-18T03:24:55;100853.27;;;6.42;100.0
63691;BME280;49837;57.280;27.070;2023-09-18T03:25:56;100854.33;;;6.47;100.0
63691;BME280;49837;57.280;27.070;2023-09-18T03:26:56;100854.07;;;6.48;100.0
63691;BME280;49837;57.280;27.070;2023-09-18T03:27:57;100853.57;;;6.49;100.0
63691;BME280;49837;57.280;27.070;2023-09-18T03:28:57;100858.39;;;6.49;100.0
63691;BME280;49837;57.280;27.070;2023-09-18T03:29:58;100851.84;;;6.49;100.0
63691;BME280;49837;57.280;27.070;2023-09-18T03:30:58;100854.74;;;6.5;100.0
63691;BME280;49837;57.280;27.070;2023-09-18T03:31:58;100854.74;;;6.51;100.0
63691;BME280;49837;57.280;27.070;2023-09-18T03:32:59;100854.91;;;6.51;100.0
63691;BME280;49837;57.280;27.070;2023-09-18T03:33:59;100855.72;;;6.52;100.0
63691;BME280;49837;57.280;27.070;2023-09-18T03:34:59;100855.04;;;6.51;100.0
63691;BME280;49837;57.280;27.070;2023-09-18T03:36:00;100859.2;;;6.53;100.0
63691;BME280;49837;57.280;27.070;2023-09-18T03:37:00;100859.69;;;6.54;100.0
63691;BME280;49837;57.280;27.070;2023-09-18T03:38:01;100861.44;;;6.56;100.0
63691;BME280;49837;57.280;27.070;2023-09-18T03:39:01;100858.7;;;6.53;100.0
63691;BME280;49837;57.280;27.070;2023-09-18T03:40:02;100859.12;;;6.5;100.0
63691;BME280;49837;57.280;27.070;2023-09-18T03:41:02;100862.77;;;6.48;100.0
63691;BME280;49837;57.280;27.070;2023-09-18T03:42:03;100860.88;;;6.44;100.0
63691;BME280;49837;57.280;27.070;2023-09-18T03:43:03;100854.68;;;6.39;100.0
63691;BME280;49837;57.280;27.070;2023-09-18T03:44:03;100857.58;;;6.33;100.0
63691;BME280;49837;57.280;27.070;2023-09-18T03:45:06;100857.67;;;6.3;100.0
63691;BME280;49837;57.280;27.070;2023-09-18T03:46:05;100857.81;;;6.32;100.0
63691;BME280;49837;57.280;27.070;2023-09-18T03:47:04;100857.06;;;6.37;100.0
63691;BME280;49837;57.280;27.070;2023-09-18T03:48:05;100860.15;;;6.39;100.0
63691;BME280;49837;57.280;27.070;2023-09-18T03:49:05;100855.31;;;6.41;100.0
63691;BME280;49837;57.280;27.070;2023-09-18T03:50:09;100855.08;;;6.4;100.0
63691;BME280;49837;57.280;27.070;2023-09-18T03:51:07;100857.25;;;6.35;100.0
63691;BME280;49837;57.280;27.070;2023-09-18T03:52:07;100862.72;;;6.32;100.0
63691;BME280;49837;57.280;27.070;2023-09-18T03:53:08;100860.39;;;6.3;100.0
63691;BME280;49837;57.280;27.070;2023-09-18T03:54:08;100859.15;;;6.27;100.0
63691;BME280;49837;57.280;27.070;2023-09-18T03:55:09;100861.57;;;6.25;100.0
63691;BME280;49837;57.280;27.070;2023-09-18T03:56:09;100861.24;;;6.23;100.0
63691;BME280;49837;57.280;27.070;2023-09-18T03:57:09;100865.55;;;6.19;100.0
63691;BME280;49837;57.280;27.070;2023-09-18T03:58:09;100865.39;;;6.17;100.0
63691;BME280;49837;57.280;27.070;2023-09-18T03:59:10;100862.49;;;6.17;100.0
63691;BME280;49837;57.280;27.070;2023-09-18T04:00:11;100867.11;;;6.19;100.0
63691;BME280;49837;57.280;27.070;2023-09-18T04:01:11;100864.54;;;6.23;100.0
63691;BME280;49837;57.280;27.070;2023-09-18T04:02:11;100866.36;;;6.25;100.0
63691;BME280;49837;57.280;27.070;2023-09-18T04:03:11;100864.22;;;6.25;100.0
63691;BME280;49837;57.280;27.070;2023-09-18T04:04:12;100865.88;;;6.25;100.0
63691;BME280;49837;57.280;27.070;2023-09-18T04:05:12;100865.78;;;6.22;100.0
63691;BME280;49837;57.280;27.070;2023-09-18T04:06:13;100864.22;;;6.21;100.0
63691;BME280;49837;57.280;27.070;2023-09-18T04:07:13;100868.86;;;6.2;100.0
63691;BME280;49837;57.280;27.070;2023-09-18T04:08:13;100865.55;;;6.18;100.0
63691;BME280;49837;57.280;27.070;2023-09-18T04:09:14;100873.66;;;6.17;100.0
63691;BME280;49837;57.280;27.070;2023-09-18T04:10:14;100870.61;;;6.17;100.0
63691;BME280;49837;57.280;27.070;2023-09-18T04:11:14;100870.27;;;6.16;100.0
63691;BME280;49837;57.280;27.070;2023-09-18T04:12:15;100872.1;;;6.16;100.0
63691;BME280;49837;57.280;27.070;2023-09-18T04:13:15;100869.78;;;6.14;100.0
63691;BME280;49837;57.280;27.070;2023-09-18T04:14:16;100868.77;;;6.15;100.0
63691;BME280;49837;57.280;27.070;2023-09-18T04:15:16;100871.94;;;6.16;100.0
63691;BME280;49837;57.280;27.070;2023-09-18T04:16:16;100873.83;;;6.16;100.0
63691;BME280;49837;57.280;27.070;2023-09-18T04:17:17;100872.93;;;6.17;100.0
63691;BME280;49837;57.280;27.070;2023-09-18T04:18:17;100878.47;;;6.19;100.0
63691;BME280;49837;57.280;27.070;2023-09-18T04:19:18;100879.47;;;6.2;100.0
63691;BME280;49837;57.280;27.070;2023-09-18T04:20:18;100880.85;;;6.21;100.0
63691;BME280;49837;57.280;27.070;2023-09-18T04:21:18;100883.11;;;6.2;100.0
63691;BME280;49837;57.280;27.070;2023-09-18T04:22:19;100878.64;;;6.17;100.0
63691;BME280;49837;57.280;27.070;2023-09-18T04:24:23;100878.3;;;6.1;100.0
63691;BME280;49837;57.280;27.070;2023-09-18T04:25:24;100878.05;;;6.06;100.0
63691;BME280;49837;57.280;27.070;2023-09-18T04:26:25;100877.88;;;6.02;100.0
63691;BME280;49837;57.280;27.070;2023-09-18T04:27:24;100879.08;;;5.93;100.0
63691;BME280;49837;57.280;27.070;2023-09-18T04:28:25;100878.68;;;5.87;100.0
63691;BME280;49837;57.280;27.070;2023-09-18T04:29:25;100873.12;;;5.8;100.0
63691;BME280;49837;57.280;27.070;2023-09-18T04:30:26;100873.61;;;5.75;100.0
63691;BME280;49837;57.280;27.070;2023-09-18T04:31:27;100872.77;;;5.72;100.0
63691;BME280;49837;57.280;27.070;2023-09-18T04:32:27;100874.37;;;5.72;100.0
63691;BME280;49837;57.280;27.070;2023-09-18T04:33:27;100872.62;;;5.71;100.0
63691;BME280;49837;57.280;27.070;2023-09-18T04:34:27;100873.05;;;5.72;100.0
63691;BME280;49837;57.280;27.070;2023-09-18T04:35:27;100873.12;;;5.73;100.0
63691;BME280;49837;57.280;27.070;2023-09-18T04:36:28;100872.13;;;5.77;100.0
63691;BME280;49837;57.280;27.070;2023-09-18T04:37:29;100875.03;;;5.81;100.0
63691;BME280;49837;57.280;27.070;2023-09-18T04:38:29;100872.89;;;5.87;100.0
63691;BME280;49837;57.280;27.070;2023-09-18T04:39:29;100877.11;;;5.91;100.0
63691;BME280;49837;57.280;27.070;2023-09-18T04:40:29;100871.55;;;5.96;100.0
63691;BME280;49837;57.280;27.070;2023-09-18T04:41:30;100869.99;;;5.98;100.0
63691;BME280;49837;57.280;27.070;2023-09-18T04:42:30;100869.48;;;5.99;100.0
63691;BME280;49837;57.280;27.070;2023-09-18T04:43:31;100869.26;;;6.01;100.0
63691;BME280;49837;57.280;27.070;2023-09-18T04:44:31;100870.75;;;6.01;100.0
63691;BME280;49837;57.280;27.070;2023-09-18T04:45:32;100871.39;;;5.98;100.0
63691;BME280;49837;57.280;27.070;2023-09-18T04:46:33;100870.48;;;5.97;100.0
63691;BME280;49837;57.280;27.070;2023-09-18T04:47:32;100869.81;;;5.99;100.0
63691;BME280;49837;57.280;27.070;2023-09-18T04:48:33;100871.93;;;6.02;100.0
63691;BME280;49837;57.280;27.070;2023-09-18T04:49:33;100871.91;;;6.04;100.0
63691;BME280;49837;57.280;27.070;2023-09-18T04:50:33;100876.83;;;6.06;100.0
63691;BME280;49837;57.280;27.070;2023-09-18T04:51:34;100872.98;;;6.1;100.0
63691;BME280;49837;57.280;27.070;2023-09-18T04:52:34;100873.81;;;6.16;100.0
63691;BME280;49837;57.280;27.070;2023-09-18T04:53:34;100872.75;;;6.18;100.0
63691;BME280;49837;57.280;27.070;2023-09-18T04:54:35;100876.23;;;6.19;100.0
63691;BME280;49837;57.280;27.070;2023-09-18T04:55:35;100876.06;;;6.19;100.0
63691;BME280;49837;57.280;27.070;2023-09-18T04:56:36;100873.83;;;6.18;100.0
63691;BME280;49837;57.280;27.070;2023-09-18T04:57:36;100876.16;;;6.19;100.0
63691;BME280;49837;57.280;27.070;2023-09-18T04:58:38;100869.18;;;6.23;100.0
63691;BME280;49837;57.280;27.070;2023-09-18T04:59:37;100865.44;;;6.27;100.0
63691;BME280;49837;57.280;27.070;2023-09-18T05:00:37;100866.27;;;6.32;100.0
63691;BME280;49837;57.280;27.070;2023-09-18T05:01:38;100866.12;;;6.35;100.0
63691;BME280;49837;57.280;27.070;2023-09-18T05:02:38;100869.66;;;6.38;100.0
63691;BME280;49837;57.280;27.070;2023-09-18T05:03:38;100869.67;;;6.42;100.0
63691;BME280;49837;57.280;27.070;2023-09-18T05:04:39;100869.58;;;6.46;100.0
63691;BME280;49837;57.280;27.070;2023-09-18T05:05:40;100868.24;;;6.5;100.0
63691;BME280;49837;57.280;27.070;2023-09-18T05:06:40;100872.94;;;6.53;100.0
63691;BME280;49837;57.280;27.070;2023-09-18T05:07:40;100872.71;;;6.57;100.0
63691;BME280;49837;57.280;27.070;2023-09-18T05:08:41;100870.8;;;6.6;100.0
63691;BME280;49837;57.280;27.070;2023-09-18T05:09:41;100874.58;;;6.67;100.0
63691;BME280;49837;57.280;27.070;2023-09-18T05:10:42;100871.84;;;6.71;100.0
63691;BME280;49837;57.280;27.070;2023-09-18T05:11:42;100871.23;;;6.76;100.0
63691;BME280;49837;57.280;27.070;2023-09-18T05:12:43;100871.48;;;6.8;100.0
63691;BME280;49837;57.280;27.070;2023-09-18T05:13:43;100868.66;;;6.83;100.0
63691;BME280;49837;57.280;27.070;2023-09-18T05:14:43;100867.9;;;6.88;100.0
63691;BME280;49837;57.280;27.070;2023-09-18T05:15:44;100874.74;;;6.94;100.0
63691;BME280;49837;57.280;27.070;2023-09-18T05:16:44;100872.08;;;6.99;100.0
63691;BME280;49837;57.280;27.070;2023-09-18T05:17:47;100870.23;;;7.04;100.0
63691;BME280;49837;57.280;27.070;2023-09-18T05:18:45;100871.8;;;7.11;100.0
63691;BME280;49837;57.280;27.070;2023-09-18T05:19:45;100873.24;;;7.18;100.0
63691;BME280;49837;57.280;27.070;2023-09-18T05:20:46;100871.81;;;7.25;100.0
63691;BME280;49837;57.280;27.070;2023-09-18T05:21:46;100870.84;;;7.32;100.0
63691;BME280;49837;57.280;27.070;2023-09-18T05:22:46;100870.0;;;7.39;100.0